Mannsville, Kentucky
Current Conditions -  °F | °C
As of 10:55 AM on Sunday 25 Jan 2015 (Local Time) from K6I2 Reporting Station
Broken Clouds Broken Clouds  
Wind Chill: 39°   Ceiling: 8000
Heat Index: 45°   Visibility: 10mi
Dew Point: 34°   Wind: 10mph
Humidity: 66%   Direction: 160°SSE
Pressure: 29.73"   Gusts: NA
Location:  37.37°N, 85.2°W
Report Text: K6I2 251555Z AUTO 16009KT 10SM BKN080 07/01 A2973 RMK AO2
Loading
Personal Weather Stations






























Interactive Weather Map New forecast layout! Learn more

10-Day Weather Forecast

Advertisements
Track Severe Weather on mobile